createdAt,value
2018-10-01T00:00:32.156Z,6.10
2018-10-01T00:01:37.940Z,6.17
2018-10-01T00:02:42.610Z,6.25
2018-10-01T00:03:48.202Z,6.31
2018-10-01T00:04:53.074Z,6.38
2018-10-01T00:05:57.942Z,6.42
2018-10-01T00:07:02.876Z,6.44
2018-10-01T00:08:08.029Z,6.45
2018-10-01T00:09:13.036Z,6.46
2018-10-01T00:10:19.985Z,6.50
2018-10-01T00:11:24.776Z,6.54
2018-10-01T00:12:29.242Z,6.59
2018-10-01T00:13:34.146Z,6.61
2018-10-01T00:14:39.210Z,6.59
2018-10-01T00:15:43.801Z,6.57
2018-10-01T00:16:48.392Z,6.55
2018-10-01T00:17:53.017Z,6.56
2018-10-01T00:18:57.931Z,6.55
2018-10-01T00:20:09.864Z,6.48
2018-10-01T00:21:19.492Z,6.29
2018-10-01T00:22:31.413Z,6.10
2018-10-01T00:23:37.031Z,6.01
2018-10-01T00:24:41.618Z,6.04
2018-10-01T00:25:46.069Z,6.01
2018-10-01T00:26:50.972Z,6.00
2018-10-01T00:27:55.554Z,5.94
2018-10-01T00:29:00.165Z,6.00
2018-10-01T00:30:08.521Z,6.10
2018-10-01T00:31:13.099Z,6.21
2018-10-01T00:32:17.677Z,6.22
2018-10-01T00:33:22.485Z,6.19
2018-10-01T00:34:27.238Z,6.17
2018-10-01T00:35:31.878Z,6.17
2018-10-01T00:36:36.561Z,6.19
2018-10-01T00:37:41.074Z,6.08
2018-10-01T00:38:45.808Z,6.09
2018-10-01T00:39:50.975Z,6.11
2018-10-01T00:40:55.398Z,6.10
2018-10-01T00:41:59.856Z,6.02
2018-10-01T00:43:04.286Z,5.84
2018-10-01T00:44:08.708Z,5.72
2018-10-01T00:45:13.117Z,5.72
2018-10-01T00:46:17.808Z,5.71
2018-10-01T00:47:22.218Z,5.64
2018-10-01T00:48:26.625Z,5.47
2018-10-01T00:49:31.050Z,5.42
2018-10-01T00:50:35.487Z,5.49
2018-10-01T00:51:39.956Z,5.58
2018-10-01T00:52:44.701Z,5.56
2018-10-01T00:53:49.118Z,5.47
2018-10-01T00:54:53.539Z,5.52
2018-10-01T00:55:57.965Z,5.53
2018-10-01T00:57:02.378Z,5.52
2018-10-01T00:58:06.817Z,5.60
2018-10-01T00:59:11.538Z,5.69
2018-10-01T01:00:15.985Z,5.55
2018-10-01T01:01:20.494Z,5.39
2018-10-01T01:02:27.276Z,5.29
2018-10-01T01:03:32.355Z,5.17
2018-10-01T01:04:37.459Z,5.20
2018-10-01T01:05:41.896Z,5.30
2018-10-01T01:06:47.894Z,5.35
2018-10-01T01:07:52.824Z,5.27
2018-10-01T01:08:57.239Z,5.20
2018-10-01T01:10:01.939Z,5.18
2018-10-01T01:11:06.387Z,5.21
2018-10-01T01:12:11.261Z,5.26
2018-10-01T01:13:17.575Z,5.33
2018-10-01T01:14:22.067Z,5.18
2018-10-01T01:15:26.537Z,5.01
2018-10-01T01:16:30.999Z,4.86
2018-10-01T01:17:35.966Z,4.80
2018-10-01T01:18:40.818Z,4.74
2018-10-01T01:19:45.253Z,4.71
2018-10-01T01:20:49.803Z,4.82
2018-10-01T01:21:54.314Z,4.90
2018-10-01T01:22:58.754Z,4.87
2018-10-01T01:24:03.190Z,4.90
2018-10-01T01:25:08.097Z,4.97
2018-10-01T01:26:12.560Z,5.05
2018-10-01T01:27:17.020Z,5.09
2018-10-01T01:28:21.451Z,5.18
2018-10-01T01:29:27.444Z,5.15
2018-10-01T01:30:31.908Z,5.08
2018-10-01T01:31:36.806Z,4.99
2018-10-01T01:32:41.199Z,4.97
2018-10-01T01:33:45.614Z,4.99
2018-10-01T01:34:50.065Z,5.03
2018-10-01T01:35:54.457Z,5.04
2018-10-01T01:36:58.917Z,4.98
2018-10-01T01:38:03.674Z,4.97
2018-10-01T01:39:09.176Z,4.95
2018-10-01T01:40:13.591Z,4.86
2018-10-01T01:41:18.033Z,4.87
2018-10-01T01:42:22.489Z,4.95
2018-10-01T01:43:26.917Z,5.02
2018-10-01T01:44:31.768Z,4.95
2018-10-01T01:45:36.661Z,4.90
2018-10-01T01:46:41.072Z,4.90
2018-10-01T01:47:45.471Z,4.90
2018-10-01T01:48:50.661Z,4.85
2018-10-01T01:49:55.083Z,4.84
2018-10-01T01:50:59.878Z,4.95
2018-10-01T01:52:04.397Z,5.07
2018-10-01T01:53:10.409Z,5.15
2018-10-01T01:54:14.827Z,5.23
2018-10-01T01:55:19.281Z,5.28
2018-10-01T01:56:23.746Z,5.27
2018-10-01T01:57:28.601Z,5.18
2018-10-01T01:58:33.087Z,5.16
2018-10-01T01:59:37.518Z,5.14
2018-10-01T02:00:41.947Z,5.17
2018-10-01T02:01:46.362Z,5.21
2018-10-01T02:02:50.881Z,5.27
2018-10-01T02:03:55.651Z,5.31
2018-10-01T02:05:00.084Z,5.41
2018-10-01T02:06:04.556Z,5.46
2018-10-01T02:07:08.978Z,5.52
2018-10-01T02:08:13.405Z,5.57
2018-10-01T02:09:17.811Z,5.65
2018-10-01T02:10:22.827Z,5.60
2018-10-01T02:11:27.269Z,5.60
2018-10-01T02:12:31.691Z,5.58
2018-10-01T02:13:36.137Z,5.46
2018-10-01T02:14:40.566Z,5.38
2018-10-01T02:15:45.068Z,5.37
2018-10-01T02:16:50.637Z,5.37
2018-10-01T02:17:55.102Z,5.43
2018-10-01T02:18:59.536Z,5.49
2018-10-01T02:20:03.986Z,5.58
2018-10-01T02:21:08.447Z,5.64
2018-10-01T02:22:12.901Z,5.67
2018-10-01T02:23:21.346Z,5.64
2018-10-01T02:24:28.711Z,5.53
2018-10-01T02:25:33.153Z,5.48
2018-10-01T02:26:37.577Z,5.43
2018-10-01T02:27:41.998Z,5.37
2018-10-01T02:28:46.442Z,5.30
2018-10-01T02:29:51.416Z,5.22
2018-10-01T02:30:55.949Z,5.21
2018-10-01T02:32:00.410Z,5.14
2018-10-01T02:33:06.942Z,4.99
2018-10-01T02:34:11.386Z,4.84
2018-10-01T02:35:15.835Z,4.67
2018-10-01T02:36:20.654Z,4.65
2018-10-01T02:37:25.090Z,4.60
2018-10-01T02:38:30.110Z,4.66
2018-10-01T02:39:34.561Z,4.70
2018-10-01T02:40:38.992Z,4.76
2018-10-01T02:41:43.416Z,4.82
2018-10-01T02:42:48.357Z,4.85
2018-10-01T02:43:52.795Z,4.81
2018-10-01T02:44:57.249Z,4.91
2018-10-01T02:46:02.637Z,5.01
2018-10-01T02:47:07.086Z,5.01
2018-10-01T02:48:11.502Z,5.02
2018-10-01T02:49:16.375Z,4.99
2018-10-01T02:50:20.806Z,4.94
2018-10-01T02:51:25.260Z,4.89
2018-10-01T02:52:34.773Z,4.89
2018-10-01T02:53:44.388Z,4.88
2018-10-01T02:54:48.802Z,4.88
2018-10-01T02:55:53.731Z,4.88
2018-10-01T02:56:58.154Z,4.91
2018-10-01T02:58:02.550Z,5.01
2018-10-01T02:59:08.849Z,5.13
2018-10-01T03:00:13.258Z,5.26
2018-10-01T03:01:17.675Z,5.36
2018-10-01T03:02:23.394Z,5.44
2018-10-01T03:03:27.840Z,5.50
2018-10-01T03:04:32.269Z,5.51
2018-10-01T03:05:36.718Z,5.50
2018-10-01T03:06:41.223Z,5.55
2018-10-01T03:07:45.626Z,5.44
2018-10-01T03:08:50.519Z,5.36
2018-10-01T03:09:55.022Z,5.42
2018-10-01T03:10:59.439Z,5.50
2018-10-01T03:12:03.923Z,5.56
2018-10-01T03:13:09.355Z,5.54
2018-10-01T03:14:13.766Z,5.59
2018-10-01T03:15:18.809Z,5.63
2018-10-01T03:16:23.246Z,5.66
2018-10-01T03:17:27.697Z,5.72
2018-10-01T03:18:32.117Z,5.69
2018-10-01T03:19:36.561Z,5.63
2018-10-01T03:20:40.979Z,5.62
2018-10-01T03:21:45.738Z,5.64
2018-10-01T03:22:50.173Z,5.65
2018-10-01T03:23:54.622Z,5.63
2018-10-01T03:24:59.190Z,5.57
2018-10-01T03:26:03.663Z,5.55
2018-10-01T03:27:08.451Z,5.51
2018-10-01T03:28:12.911Z,5.55
2018-10-01T03:29:17.320Z,5.56
2018-10-01T03:30:21.775Z,5.56
2018-10-01T03:31:26.255Z,5.57
2018-10-01T03:32:30.883Z,5.60
2018-10-01T03:33:35.921Z,5.51
2018-10-01T03:34:40.342Z,5.50
2018-10-01T03:35:44.800Z,5.57
2018-10-01T03:36:49.243Z,5.58
2018-10-01T03:37:53.684Z,5.65
2018-10-01T03:38:58.135Z,5.64
2018-10-01T03:40:02.998Z,5.66
2018-10-01T03:41:07.405Z,5.66
2018-10-01T03:42:11.835Z,5.67
2018-10-01T03:43:16.318Z,5.61
2018-10-01T03:44:20.762Z,5.60
2018-10-01T03:45:25.655Z,5.61
2018-10-01T03:46:30.462Z,5.62
2018-10-01T03:47:34.878Z,5.63
2018-10-01T03:48:39.280Z,5.66
2018-10-01T03:49:43.690Z,5.70
2018-10-01T03:50:48.127Z,5.74
2018-10-01T03:51:52.592Z,5.80
2018-10-01T03:52:57.394Z,5.85
2018-10-01T03:54:01.968Z,5.90
2018-10-01T03:55:07.400Z,5.94
2018-10-01T03:56:11.899Z,5.92
2018-10-01T03:57:16.361Z,5.84
2018-10-01T03:58:20.787Z,5.71
2018-10-01T03:59:25.659Z,5.63
2018-10-01T04:00:30.075Z,5.62
2018-10-01T04:01:35.336Z,5.62
2018-10-01T04:02:39.870Z,5.60
2018-10-01T04:03:44.681Z,5.66
2018-10-01T04:04:49.260Z,5.74
2018-10-01T04:05:54.372Z,5.79
2018-10-01T04:06:59.603Z,5.80
2018-10-01T04:08:04.020Z,5.80
2018-10-01T04:09:09.247Z,5.82
2018-10-01T04:10:13.712Z,5.85
2018-10-01T04:11:18.170Z,5.87
2018-10-01T04:12:23.012Z,5.91
2018-10-01T04:13:27.671Z,5.94
2018-10-01T04:14:33.416Z,5.95
2018-10-01T04:15:37.883Z,5.85
2018-10-01T04:16:42.434Z,5.82
2018-10-01T04:17:47.190Z,5.75
2018-10-01T04:18:51.986Z,5.65
2018-10-01T04:19:56.442Z,5.56
2018-10-01T04:21:00.909Z,5.45
2018-10-01T04:22:05.423Z,5.52
2018-10-01T04:23:10.703Z,5.60
2018-10-01T04:24:16.232Z,5.69
2018-10-01T04:25:22.258Z,5.73
2018-10-01T04:26:26.728Z,5.78
2018-10-01T04:27:31.201Z,5.79
2018-10-01T04:28:35.722Z,5.77
2018-10-01T04:29:40.251Z,5.74
2018-10-01T04:30:44.690Z,5.76
2018-10-01T04:31:49.738Z,5.82
2018-10-01T04:32:54.200Z,5.87
2018-10-01T04:33:58.768Z,5.80
2018-10-01T04:35:03.250Z,5.73
2018-10-01T04:36:07.791Z,5.70
2018-10-01T04:37:13.200Z,5.72
2018-10-01T04:38:18.141Z,5.66
2018-10-01T04:39:22.611Z,5.55
2018-10-01T04:40:27.273Z,5.57
2018-10-01T04:41:32.001Z,5.61
2018-10-01T04:42:36.445Z,5.64
2018-10-01T04:43:40.939Z,5.70
2018-10-01T04:44:45.790Z,5.74
2018-10-01T04:45:50.253Z,5.75
2018-10-01T04:46:54.822Z,5.80
2018-10-01T04:47:59.237Z,5.87
2018-10-01T04:49:03.742Z,5.87
2018-10-01T04:50:08.246Z,5.87
2018-10-01T04:51:13.446Z,5.89
2018-10-01T04:52:19.609Z,5.87
2018-10-01T04:53:24.913Z,5.84
2018-10-01T04:54:30.574Z,5.82
2018-10-01T04:55:38.706Z,5.77
2018-10-01T04:56:43.891Z,5.75
2018-10-01T04:57:48.718Z,5.76
2018-10-01T04:58:53.232Z,5.76
2018-10-01T04:59:57.705Z,5.74
2018-10-01T05:01:02.166Z,5.75
2018-10-01T05:02:06.679Z,5.78
2018-10-01T05:03:11.694Z,5.80
2018-10-01T05:04:16.401Z,5.81
2018-10-01T05:05:20.867Z,5.82
2018-10-01T05:06:26.106Z,5.82
2018-10-01T05:07:30.560Z,5.81
2018-10-01T05:08:35.083Z,5.84
2018-10-01T05:09:41.438Z,5.88
2018-10-01T05:10:46.675Z,5.90
2018-10-01T05:11:51.161Z,5.86
2018-10-01T05:12:55.685Z,5.89
2018-10-01T05:14:00.943Z,5.85
2018-10-01T05:15:05.427Z,5.74
2018-10-01T05:16:10.441Z,5.71
2018-10-01T05:17:15.412Z,5.63
2018-10-01T05:18:19.878Z,5.60
2018-10-01T05:19:24.344Z,5.62
2018-10-01T05:20:28.825Z,5.64
2018-10-01T05:21:33.282Z,5.66
2018-10-01T05:22:38.252Z,5.71
2018-10-01T05:23:42.740Z,5.68
2018-10-01T05:24:47.277Z,5.67
2018-10-01T05:25:52.247Z,5.67
2018-10-01T05:26:56.761Z,5.65
2018-10-01T05:28:01.222Z,5.67
2018-10-01T05:29:05.648Z,5.67
2018-10-01T05:30:10.101Z,5.60
2018-10-01T05:31:14.874Z,5.56
2018-10-01T05:45:38.680Z,5.61
2018-10-01T05:46:43.404Z,5.64
2018-10-01T05:47:48.099Z,5.63
2018-10-01T05:48:52.558Z,5.62
2018-10-01T05:49:57.040Z,5.65
2018-10-01T05:51:01.824Z,5.60
2018-10-01T05:52:06.375Z,5.60
2018-10-01T05:53:11.194Z,5.65
2018-10-01T05:54:16.397Z,5.70
2018-10-01T05:55:20.851Z,5.72
2018-10-01T05:56:25.858Z,5.74
2018-10-01T05:57:30.389Z,5.73
2018-10-01T05:58:35.167Z,5.74
2018-10-01T05:59:39.662Z,5.73
2018-10-01T06:00:44.239Z,5.75
2018-10-01T06:01:48.875Z,5.79
2018-10-01T06:02:54.262Z,5.83
2018-10-01T06:03:58.779Z,5.89
2018-10-01T06:05:03.965Z,5.93
2018-10-01T06:06:08.517Z,5.98
2018-10-01T06:07:13.003Z,6.00
2018-10-01T06:08:18.239Z,5.94
2018-10-01T06:09:23.522Z,5.96
2018-10-01T06:10:29.474Z,5.89
2018-10-01T06:11:35.553Z,5.93
2018-10-01T06:12:40.129Z,5.93
2018-10-01T06:13:45.235Z,5.99
2018-10-01T06:14:49.713Z,6.08
2018-10-01T06:15:54.700Z,6.13
2018-10-01T06:17:00.961Z,6.16
2018-10-01T06:18:05.469Z,6.13
2018-10-01T06:19:10.169Z,6.18
2018-10-01T06:20:14.694Z,6.20
2018-10-01T06:21:19.204Z,6.25
2018-10-01T06:22:24.573Z,6.26
2018-10-01T06:23:29.246Z,6.31
2018-10-01T06:24:33.816Z,6.36
2018-10-01T06:25:38.343Z,6.36
2018-10-01T06:26:43.637Z,6.33
2018-10-01T06:27:48.236Z,6.32
2018-10-01T06:28:53.192Z,6.25
2018-10-01T06:29:57.826Z,6.16
2018-10-01T06:31:02.374Z,6.07
2018-10-01T06:32:07.093Z,6.08
2018-10-01T06:33:11.926Z,6.02
2018-10-01T06:34:16.865Z,5.92
2018-10-01T06:35:21.650Z,5.89
2018-10-01T06:36:27.097Z,5.84
2018-10-01T06:37:31.928Z,5.79
2018-10-01T06:38:37.074Z,5.79
2018-10-01T06:39:41.534Z,5.78
2018-10-01T06:40:47.036Z,5.71
2018-10-01T06:41:52.231Z,5.67
2018-10-01T06:42:56.811Z,5.65
2018-10-01T06:44:01.887Z,5.66
2018-10-01T06:45:06.449Z,5.71
2018-10-01T06:46:12.255Z,5.75
2018-10-01T06:47:16.762Z,5.80
2018-10-01T06:48:21.739Z,5.95
2018-10-01T06:49:27.522Z,6.02
2018-10-01T06:50:32.053Z,6.09
2018-10-01T06:51:37.350Z,6.16
2018-10-01T06:52:41.890Z,6.25
2018-10-01T06:53:47.242Z,6.32
2018-10-01T06:54:51.821Z,6.38
2018-10-01T06:55:56.305Z,6.41
2018-10-01T06:57:00.925Z,6.44
2018-10-01T06:58:05.591Z,6.52
2018-10-01T06:59:11.870Z,6.48
2018-10-01T07:00:17.678Z,6.53
2018-10-01T07:01:23.192Z,6.55
2018-10-01T07:02:27.928Z,6.59
2018-10-01T07:03:32.574Z,6.62
2018-10-01T07:04:38.097Z,6.64
2018-10-01T07:05:43.412Z,6.55
2018-10-01T07:06:48.639Z,6.47
2018-10-01T07:07:53.914Z,6.41
2018-10-01T07:08:58.721Z,6.38
2018-10-01T07:10:03.336Z,6.37
2018-10-01T07:11:12.737Z,6.42
2018-10-01T07:12:17.810Z,6.39
2018-10-01T07:13:22.972Z,6.39
2018-10-01T07:14:28.130Z,6.45
2018-10-01T07:15:33.216Z,6.59
2018-10-01T07:16:38.397Z,6.72
2018-10-01T07:17:43.654Z,6.92
2018-10-01T07:18:51.632Z,7.10
2018-10-01T07:19:58.086Z,7.25
2018-10-01T07:21:03.489Z,7.29
2018-10-01T07:22:08.854Z,7.30
2018-10-01T07:23:13.464Z,7.39
2018-10-01T07:24:19.152Z,7.52
2018-10-01T07:25:24.887Z,7.64
2018-10-01T07:26:29.917Z,7.70
2018-10-01T07:27:34.427Z,7.65
2018-10-01T07:28:42.352Z,7.66
2018-10-01T07:29:48.691Z,7.70
2018-10-01T07:30:58.365Z,7.66
2018-10-01T07:32:04.728Z,7.61
2018-10-01T07:33:09.497Z,7.62
2018-10-01T07:34:14.153Z,7.59
2018-10-01T07:35:19.420Z,7.61
2018-10-01T07:36:24.634Z,7.57
2018-10-01T07:37:29.500Z,7.64
2018-10-01T07:38:34.428Z,7.81
2018-10-01T07:39:38.945Z,7.98
2018-10-01T07:40:45.384Z,8.32
2018-10-01T07:47:22.727Z,8.42
2018-10-01T07:48:29.430Z,9.49
2018-10-01T07:49:35.501Z,9.75
2018-10-01T07:50:40.232Z,10.05
2018-10-01T07:51:44.778Z,10.25
2018-10-01T07:52:50.261Z,10.95
2018-10-01T07:53:55.798Z,11.63
2018-10-01T07:55:00.499Z,11.93
2018-10-01T07:56:06.015Z,11.70
2018-10-01T07:57:10.710Z,11.21
2018-10-01T07:58:15.381Z,11.31
2018-10-01T07:59:20.008Z,11.71
2018-10-01T08:00:25.787Z,11.95
2018-10-01T08:01:31.583Z,11.99
2018-10-01T08:02:36.552Z,12.83
2018-10-01T08:03:42.023Z,13.67
2018-10-01T08:04:46.617Z,14.29
2018-10-01T08:05:51.165Z,14.82
2018-10-01T08:06:57.437Z,15.38
2018-10-01T08:08:02.095Z,16.04
2018-10-01T08:09:07.909Z,16.70
2018-10-01T08:10:13.348Z,17.08
2018-10-01T08:11:19.140Z,17.61
2018-10-01T08:12:24.912Z,18.34
2018-10-01T08:13:29.858Z,16.06
2018-10-01T08:14:34.666Z,16.57
2018-10-01T08:15:39.291Z,16.15
2018-10-01T08:16:43.906Z,16.93
2018-10-01T08:17:48.833Z,16.74
2018-10-01T08:18:53.650Z,17.82
2018-10-01T08:19:59.161Z,18.16
2018-10-01T08:21:03.636Z,19.74
2018-10-01T08:22:09.432Z,19.18
2018-10-01T08:23:14.604Z,19.19
2018-10-01T08:24:19.562Z,19.03
2018-10-01T08:25:25.408Z,19.77
2018-10-01T08:26:30.443Z,18.10
2018-10-01T08:27:35.026Z,17.35
2018-10-01T08:28:44.701Z,16.26
2018-10-01T08:29:49.494Z,15.16
2018-10-01T08:30:54.236Z,14.52
2018-10-01T08:32:00.413Z,13.96
2018-10-01T08:33:06.808Z,13.45
2018-10-01T08:34:12.597Z,13.29
2018-10-01T08:35:17.914Z,13.32
2018-10-01T08:36:22.604Z,13.40
2018-10-01T08:37:30.068Z,13.28
2018-10-01T08:38:34.733Z,13.15
2018-10-01T08:39:41.663Z,13.12
2018-10-01T08:40:47.533Z,13.08
2018-10-01T08:41:52.961Z,13.09
2018-10-01T08:42:59.590Z,13.48
2018-10-01T08:44:04.360Z,12.89
2018-10-01T08:45:10.531Z,12.30
2018-10-01T08:46:19.381Z,11.97
2018-10-01T08:47:27.056Z,11.82
2018-10-01T08:48:34.648Z,11.47
2018-10-01T08:50:03.613Z,11.47
2018-10-01T08:51:15.972Z,11.46
2018-10-01T08:52:35.924Z,11.26
2018-10-01T08:53:46.771Z,11.22
2018-10-01T08:54:51.985Z,11.16
2018-10-01T08:55:56.803Z,11.04
2018-10-01T08:57:02.812Z,11.97
2018-10-01T08:58:07.375Z,12.75
2018-10-01T08:59:14.287Z,12.63
2018-10-01T09:00:19.054Z,13.01
2018-10-01T09:01:23.504Z,12.81
2018-10-01T09:02:28.045Z,12.58
2018-10-01T09:03:33.121Z,12.74
2018-10-01T09:04:38.318Z,13.91
2018-10-01T09:05:43.187Z,13.70
2018-10-01T09:06:47.693Z,15.18
2018-10-01T09:07:52.729Z,15.72
2018-10-01T09:08:58.337Z,14.97
2018-10-01T09:10:02.826Z,13.55
2018-10-01T09:11:08.199Z,12.88
2018-10-01T09:12:13.053Z,12.33
2018-10-01T09:13:17.737Z,12.00
2018-10-01T09:14:22.648Z,13.16
2018-10-01T09:15:27.338Z,16.10
2018-10-01T09:16:32.780Z,18.39
2018-10-01T09:17:37.650Z,20.36
2018-10-01T09:18:43.242Z,19.93
2018-10-01T09:19:48.871Z,20.26
2018-10-01T09:20:54.527Z,20.23
2018-10-01T09:22:02.844Z,19.20
2018-10-01T09:23:09.676Z,19.09
2018-10-01T09:24:15.592Z,18.82
2018-10-01T09:25:21.634Z,18.42
2018-10-01T09:26:27.873Z,18.56
2018-10-01T09:27:33.446Z,18.36
2018-10-01T09:28:38.257Z,19.01
2018-10-01T09:29:43.417Z,20.23
2018-10-01T09:30:48.454Z,20.74
2018-10-01T09:31:55.364Z,20.79
2018-10-01T09:33:00.365Z,18.56
2018-10-01T09:34:06.114Z,15.97
2018-10-01T09:35:12.610Z,14.02
2018-10-01T09:36:19.349Z,12.83
2018-10-01T09:37:24.202Z,12.91
2018-10-01T09:38:29.883Z,13.09
2018-10-01T09:39:34.876Z,12.58
2018-10-01T09:40:41.651Z,12.05
2018-10-01T09:41:49.836Z,13.80
2018-10-01T09:42:56.026Z,15.39
2018-10-01T09:44:03.227Z,14.58
2018-10-01T09:45:09.663Z,14.14
2018-10-01T09:46:19.434Z,14.63
2018-10-01T09:47:25.516Z,15.27
2018-10-01T09:48:30.859Z,15.17
2018-10-01T09:49:35.842Z,15.45
2018-10-01T09:50:41.374Z,17.83
2018-10-01T09:51:47.117Z,16.72
2018-10-01T09:52:52.637Z,15.74
2018-10-01T09:53:58.664Z,14.93
2018-10-01T09:55:04.309Z,14.45
2018-10-01T09:56:11.078Z,14.31
2018-10-01T09:57:17.207Z,14.01
2018-10-01T09:58:24.649Z,13.86
2018-10-01T09:59:30.713Z,13.56
2018-10-01T10:00:44.212Z,13.42
2018-10-01T10:01:49.524Z,13.24
2018-10-01T10:02:59.358Z,13.04
2018-10-01T10:04:04.614Z,12.96
2018-10-01T10:05:10.845Z,12.64
2018-10-01T10:06:16.465Z,12.47
2018-10-01T10:07:22.431Z,12.37
2018-10-01T10:08:27.850Z,12.21
2018-10-01T10:09:34.741Z,12.10
2018-10-01T10:10:41.376Z,11.99
2018-10-01T10:11:48.493Z,11.78
2018-10-01T10:12:54.338Z,11.66
2018-10-01T10:13:59.303Z,11.76
2018-10-01T10:15:04.039Z,11.83
2018-10-01T10:16:08.669Z,11.87
2018-10-01T10:17:14.640Z,11.81
2018-10-01T10:18:21.677Z,11.65
2018-10-01T10:19:28.268Z,11.52
2018-10-01T10:20:33.287Z,11.47
2018-10-01T10:21:38.062Z,11.25
2018-10-01T10:22:43.502Z,11.22
2018-10-01T10:23:49.027Z,11.10
2018-10-01T10:24:54.534Z,11.20
2018-10-01T10:25:59.507Z,11.21
2018-10-01T10:27:05.161Z,11.25
2018-10-01T10:28:10.926Z,11.32
2018-10-01T10:29:17.421Z,11.30
2018-10-01T10:30:22.199Z,11.41
2018-10-01T10:31:29.629Z,11.52
2018-10-01T10:44:42.244Z,11.62
2018-10-01T10:45:47.958Z,11.62
2018-10-01T10:46:54.738Z,11.63
2018-10-01T10:48:04.372Z,11.73
2018-10-01T10:49:10.572Z,12.05
2018-10-01T10:50:15.893Z,12.85
2018-10-01T10:51:23.448Z,13.87
2018-10-01T10:52:29.288Z,14.37
2018-10-01T10:53:35.255Z,14.40
2018-10-01T10:54:40.689Z,15.19
2018-10-01T10:55:46.566Z,15.22
2018-10-01T10:56:52.656Z,14.92
2018-10-01T10:57:57.348Z,15.37
2018-10-01T10:59:03.955Z,15.29
2018-10-01T11:01:20.222Z,14.43
2018-10-01T11:02:28.048Z,14.05
2018-10-01T11:03:33.689Z,13.93
2018-10-01T11:04:39.428Z,13.90
2018-10-01T11:05:44.090Z,13.76
2018-10-01T11:06:49.199Z,13.64
2018-10-01T11:07:55.883Z,14.96
2018-10-01T11:09:01.862Z,16.79
2018-10-01T11:10:07.402Z,17.15
2018-10-01T11:11:13.441Z,16.06
2018-10-01T11:12:20.997Z,16.85
2018-10-01T11:13:26.831Z,17.27
2018-10-01T11:14:33.572Z,16.43
2018-10-01T11:15:39.533Z,15.89
2018-10-01T11:16:45.582Z,15.73
2018-10-01T11:17:51.690Z,16.36
2018-10-01T11:18:57.867Z,16.56
2018-10-01T11:20:03.962Z,16.75
2018-10-01T11:21:10.316Z,16.57
2018-10-01T11:22:16.099Z,15.76
2018-10-01T11:23:21.204Z,15.21
2018-10-01T11:24:26.424Z,14.32
2018-10-01T11:25:38.735Z,14.08
2018-10-01T11:26:44.775Z,14.56
2018-10-01T11:27:50.377Z,14.22
2018-10-01T11:28:56.680Z,13.49
2018-10-01T11:30:04.515Z,13.44
2018-10-01T11:31:09.265Z,13.66
2018-10-01T11:32:15.881Z,13.67
2018-10-01T11:33:23.180Z,13.60
2018-10-01T11:34:30.916Z,13.60
2018-10-01T11:35:37.151Z,13.55
2018-10-01T11:36:42.651Z,13.56
2018-10-01T11:37:47.907Z,13.45
2018-10-01T11:38:55.267Z,13.43
2018-10-01T11:39:59.970Z,13.45
2018-10-01T11:41:06.675Z,13.41
2018-10-01T11:42:17.591Z,13.21
2018-10-01T11:43:25.663Z,13.24
2018-10-01T11:44:31.010Z,13.51
2018-10-01T11:45:37.378Z,14.17
2018-10-01T11:46:43.340Z,15.06
2018-10-01T11:47:52.098Z,15.71
2018-10-01T11:48:59.769Z,16.70
2018-10-01T11:50:05.242Z,17.24
2018-10-01T11:51:09.943Z,17.68
2018-10-01T11:52:16.497Z,17.83
2018-10-01T11:53:27.708Z,17.02
2018-10-01T11:54:36.120Z,15.68
2018-10-01T11:55:41.685Z,15.42
2018-10-01T11:56:49.381Z,15.21
2018-10-01T11:57:54.866Z,15.27
2018-10-01T11:59:04.112Z,14.52
2018-10-01T12:00:11.266Z,14.12
2018-10-01T12:01:18.725Z,13.86
2018-10-01T12:02:24.388Z,13.26
2018-10-01T12:03:30.704Z,12.94
2018-10-01T12:04:39.677Z,12.79
2018-10-01T12:05:53.399Z,12.82
2018-10-01T12:06:59.150Z,12.79
2018-10-01T12:09:20.381Z,12.44
2018-10-01T12:10:25.877Z,12.47
2018-10-01T12:11:33.778Z,12.31
2018-10-01T12:12:50.350Z,12.31
2018-10-01T12:14:03.376Z,12.76
2018-10-01T12:15:10.604Z,12.80
2018-10-01T12:16:28.660Z,13.35
2018-10-01T12:17:33.906Z,13.87
2018-10-01T12:18:43.590Z,14.09
2018-10-01T12:19:49.774Z,13.82
2018-10-01T12:20:57.031Z,13.83
2018-10-01T12:22:07.059Z,13.44
2018-10-01T12:23:14.474Z,13.31
2018-10-01T12:24:20.164Z,13.08
2018-10-01T12:25:31.148Z,12.87
2018-10-01T12:26:37.219Z,12.69
2018-10-01T12:27:43.923Z,12.44
2018-10-01T12:28:49.507Z,12.67
2018-10-01T12:29:57.555Z,12.83
2018-10-01T12:31:09.860Z,12.83
2018-10-01T12:32:15.953Z,12.92
2018-10-01T12:33:31.334Z,12.76
2018-10-01T12:36:09.797Z,13.00
2018-10-01T12:37:15.081Z,13.01
2018-10-01T16:45:01.664Z,10.20
2018-10-01T16:47:19.360Z,10.06
2018-10-01T16:48:24.824Z,10.02
2018-10-01T16:49:30.349Z,9.83
2018-10-01T16:50:35.148Z,9.69
2018-10-01T16:51:41.723Z,9.51
2018-10-01T16:52:53.306Z,9.44
2018-10-01T16:53:59.297Z,9.44
2018-10-01T16:55:07.651Z,9.43
2018-10-01T16:56:17.150Z,9.44
2018-10-01T16:57:32.418Z,9.35
2018-10-01T16:58:40.437Z,9.35
2018-10-01T16:59:46.763Z,9.35
2018-10-01T17:00:53.684Z,9.32
2018-10-01T17:01:59.237Z,9.28
2018-10-01T17:03:05.981Z,9.26
2018-10-01T17:04:13.490Z,9.20
2018-10-01T17:05:19.274Z,9.16
2018-10-01T17:06:34.513Z,9.13
2018-10-01T17:07:40.008Z,9.16
2018-10-01T17:08:44.491Z,9.11
2018-10-01T17:09:51.722Z,9.07
2018-10-01T17:12:11.572Z,8.98
2018-10-01T17:13:18.518Z,8.77
2018-10-01T17:14:25.324Z,8.74
2018-10-01T17:15:33.824Z,8.77
2018-10-01T17:16:39.485Z,8.76
2018-10-01T17:17:46.048Z,8.74
2018-10-01T17:18:51.212Z,8.68
2018-10-01T17:19:57.055Z,8.67
2018-10-01T17:21:03.827Z,8.65
2018-10-01T17:22:08.655Z,8.60
2018-10-01T17:23:18.012Z,8.63
2018-10-01T17:24:22.563Z,8.64
2018-10-01T17:25:31.150Z,8.58
2018-10-01T17:26:37.662Z,8.57
2018-10-01T17:27:44.450Z,8.59
2018-10-01T17:28:50.631Z,8.62
2018-10-01T17:29:58.640Z,8.55
2018-10-01T17:31:07.265Z,8.55
2018-10-01T17:32:13.568Z,8.57
2018-10-01T17:33:21.316Z,8.56
2018-10-01T17:34:34.091Z,8.59
2018-10-01T17:35:41.440Z,8.62
2018-10-01T17:36:46.236Z,8.62
2018-10-01T17:37:50.929Z,8.65
2018-10-01T17:38:55.599Z,8.66
2018-10-01T17:40:00.656Z,8.55
2018-10-01T17:41:11.479Z,8.54
2018-10-01T17:42:19.408Z,8.56
2018-10-01T17:43:27.970Z,8.57
2018-10-01T17:44:48.673Z,8.58
2018-10-01T17:45:56.149Z,8.44
2018-10-01T17:47:01.401Z,8.36
2018-10-01T17:49:30.632Z,8.35
2018-10-01T17:50:36.183Z,8.33
2018-10-01T17:51:43.374Z,8.35
2018-10-01T17:52:48.513Z,8.38
2018-10-01T17:53:54.472Z,8.37
2018-10-01T17:55:05.053Z,8.43
2018-10-01T17:56:10.381Z,8.47
2018-10-01T17:57:17.278Z,8.45
2018-10-01T17:58:22.535Z,8.37
2018-10-01T17:59:29.206Z,8.37
2018-10-01T18:00:34.847Z,8.37
2018-10-01T18:01:42.788Z,8.35
2018-10-01T18:02:47.616Z,8.33
2018-10-01T18:03:53.362Z,8.33
2018-10-01T18:05:02.336Z,8.32
2018-10-01T18:06:07.173Z,8.27
2018-10-01T18:07:12.710Z,8.29
2018-10-01T18:08:21.318Z,8.29
2018-10-01T18:09:27.622Z,8.25
2018-10-01T18:10:34.669Z,8.23
2018-10-01T18:11:42.105Z,8.22
2018-10-01T18:12:49.771Z,8.15
2018-10-01T18:13:55.914Z,8.11
2018-10-01T18:15:21.403Z,8.04
2018-10-01T18:16:27.313Z,8.01
2018-10-01T18:17:35.161Z,8.04
2018-10-01T18:18:43.446Z,8.04
2018-10-01T18:19:52.612Z,8.02
2018-10-01T18:20:57.106Z,8.02
2018-10-01T18:22:06.338Z,8.01
2018-10-01T18:23:10.867Z,7.95
2018-10-01T18:24:16.084Z,7.95
2018-10-01T18:25:21.097Z,7.96
2018-10-01T18:26:30.394Z,7.96
2018-10-01T18:27:35.959Z,7.90
2018-10-01T18:28:43.073Z,7.87
2018-10-01T18:29:49.274Z,7.86
2018-10-01T18:36:27.229Z,7.85
2018-10-01T18:37:48.997Z,7.79
2018-10-01T18:38:56.232Z,7.81
2018-10-01T18:40:02.554Z,7.79
2018-10-01T18:41:12.102Z,7.75
2018-10-01T18:42:16.514Z,7.77
2018-10-01T18:43:21.645Z,7.77
2018-10-01T18:44:27.138Z,7.73
2018-10-01T18:46:47.140Z,7.72
2018-10-01T18:49:18.637Z,7.57
2018-10-01T18:50:27.865Z,7.47
2018-10-01T18:51:34.967Z,7.44
2018-10-01T18:52:41.243Z,7.44
2018-10-01T18:53:47.610Z,7.50
2018-10-01T18:54:57.053Z,7.47
2018-10-01T18:56:03.603Z,7.26
2018-10-01T18:57:09.414Z,7.22
2018-10-01T18:58:16.696Z,7.16
2018-10-01T18:59:25.629Z,7.09
2018-10-01T19:00:35.311Z,7.05
2018-10-01T19:01:40.429Z,7.02
2018-10-01T19:02:46.856Z,6.96
2018-10-01T19:03:56.220Z,7.05
2018-10-01T19:05:03.976Z,7.04
2018-10-01T19:06:12.088Z,7.02
2018-10-01T19:07:19.042Z,7.02
2018-10-01T19:08:24.397Z,6.94
2018-10-01T19:09:29.117Z,6.76
2018-10-01T19:10:38.087Z,6.75
2018-10-01T19:11:44.317Z,6.71
2018-10-01T19:12:49.662Z,6.73
2018-10-01T19:16:04.528Z,6.62
2018-10-01T19:17:11.313Z,6.52
2018-10-01T19:18:16.921Z,6.45
2018-10-01T19:19:26.566Z,6.48
2018-10-01T19:20:33.378Z,6.53
2018-10-01T19:21:40.132Z,6.48
2018-10-01T19:22:52.282Z,6.52